createdAt,value
2019-01-08T00:01:36.589Z,47.67
2019-01-08T00:04:07.829Z,47.70
2019-01-08T00:06:38.593Z,47.23
2019-01-08T00:09:09.572Z,42.43
2019-01-08T00:11:40.766Z,45.57
2019-01-08T00:14:11.520Z,43.47
2019-01-08T00:16:42.356Z,42.70
2019-01-08T00:19:13.710Z,42.97
2019-01-08T00:21:44.486Z,43.10
2019-01-08T00:24:15.564Z,43.93
2019-01-08T00:26:46.553Z,44.93
2019-01-08T00:29:17.385Z,43.80
2019-01-08T00:31:48.241Z,44.10
2019-01-08T00:34:19.219Z,48.03
2019-01-08T00:36:50.640Z,46.47
2019-01-08T00:39:21.693Z,47.07
2019-01-08T00:41:52.816Z,47.73
2019-01-08T00:44:24.112Z,45.50
2019-01-08T00:46:55.171Z,41.73
2019-01-08T00:49:26.180Z,44.37
2019-01-08T00:51:57.016Z,41.90
2019-01-08T00:54:27.771Z,43.63
2019-01-08T00:56:58.609Z,41.37
2019-01-08T00:59:29.371Z,39.20
2019-01-08T01:02:00.447Z,36.07
2019-01-08T01:04:31.174Z,43.30
2019-01-08T01:07:02.021Z,41.27
2019-01-08T01:09:32.932Z,41.73
2019-01-08T01:12:03.857Z,37.43
2019-01-08T01:14:34.919Z,39.70
2019-01-08T01:17:05.909Z,37.37
2019-01-08T01:19:36.929Z,39.03
2019-01-08T01:22:07.715Z,36.40
2019-01-08T01:24:38.468Z,37.07
2019-01-08T01:27:09.240Z,35.73
2019-01-08T01:29:40.644Z,35.77
2019-01-08T01:32:11.491Z,34.40
2019-01-08T01:34:42.256Z,34.27
2019-01-08T01:37:13.100Z,35.83
2019-01-08T01:39:43.907Z,36.67
2019-01-08T01:42:14.689Z,33.03
2019-01-08T01:44:45.856Z,32.97
2019-01-08T01:47:16.755Z,35.53
2019-01-08T01:49:47.554Z,33.53
2019-01-08T01:52:18.658Z,31.87
2019-01-08T01:54:49.551Z,33.50
2019-01-08T01:57:21.177Z,32.93
2019-01-08T01:59:52.258Z,30.57
2019-01-08T02:02:23.130Z,31.20
2019-01-08T02:04:54.461Z,30.60
2019-01-08T02:07:25.565Z,31.47
2019-01-08T02:09:56.354Z,30.20
2019-01-08T02:12:27.554Z,32.27
2019-01-08T02:14:58.416Z,31.57
2019-01-08T02:17:29.447Z,28.77
2019-01-08T02:20:00.681Z,29.53
2019-01-08T02:22:31.550Z,30.27
2019-01-08T02:25:02.423Z,29.63
2019-01-08T02:27:33.475Z,32.57
2019-01-08T02:30:04.755Z,29.47
2019-01-08T02:32:35.831Z,28.80
2019-01-08T02:35:06.702Z,26.97
2019-01-08T02:37:37.558Z,26.60
2019-01-08T02:40:08.730Z,29.20
2019-01-08T02:42:39.764Z,25.87
2019-01-08T02:45:10.633Z,27.10
2019-01-08T02:47:41.682Z,27.97
2019-01-08T02:50:12.874Z,26.33
2019-01-08T02:52:43.666Z,24.57
2019-01-08T02:55:14.540Z,22.77
2019-01-08T02:57:45.592Z,23.30
2019-01-08T03:00:16.538Z,28.93
2019-01-08T03:02:47.563Z,25.20
2019-01-08T03:05:18.588Z,26.77
2019-01-08T03:07:49.768Z,27.10
2019-01-08T03:10:20.571Z,26.27
2019-01-08T03:12:52.632Z,24.77
2019-01-08T03:15:23.746Z,25.97
2019-01-08T03:17:55.057Z,24.80
2019-01-08T03:20:26.220Z,25.00
2019-01-08T03:22:59.374Z,25.10
2019-01-08T03:25:30.296Z,25.53
2019-01-08T03:28:01.882Z,25.20
2019-01-08T03:30:33.285Z,25.33
2019-01-08T03:33:05.479Z,25.90
2019-01-08T03:35:36.550Z,23.50
2019-01-08T03:38:07.825Z,25.80
2019-01-08T03:40:38.862Z,22.47
2019-01-08T03:43:09.997Z,25.30
2019-01-08T03:45:41.050Z,25.90
2019-01-08T03:48:12.152Z,21.77
2019-01-08T03:50:43.024Z,22.13
2019-01-08T03:53:14.130Z,18.73
2019-01-08T03:55:45.767Z,17.53
2019-01-08T03:58:17.178Z,18.73
2019-01-08T04:00:49.249Z,18.20
2019-01-08T04:03:20.104Z,19.77
2019-01-08T04:05:51.201Z,20.87
2019-01-08T04:08:22.056Z,18.37
2019-01-08T04:10:52.854Z,17.37
2019-01-08T04:13:23.939Z,18.73
2019-01-08T04:15:55.121Z,19.10
2019-01-08T04:18:26.190Z,19.27
2019-01-08T04:20:57.317Z,19.27
2019-01-08T04:23:29.469Z,20.73
2019-01-08T04:26:00.419Z,22.10
2019-01-08T04:28:31.281Z,21.60
2019-01-08T04:31:02.086Z,18.57
2019-01-08T04:33:33.132Z,17.47
2019-01-08T04:36:04.017Z,19.00
2019-01-08T04:38:34.875Z,19.73
2019-01-08T04:41:05.862Z,18.33
2019-01-08T04:43:37.161Z,19.27
2019-01-08T04:46:08.044Z,20.40
2019-01-08T04:48:39.115Z,18.27
2019-01-08T04:51:09.909Z,17.80
2019-01-08T04:53:40.702Z,16.93
2019-01-08T04:56:12.051Z,18.67
2019-01-08T04:58:42.906Z,19.73
2019-01-08T05:01:13.717Z,19.03
2019-01-08T05:03:44.516Z,17.73
2019-01-08T05:06:15.787Z,19.00
2019-01-08T05:08:46.686Z,19.80
2019-01-08T05:11:17.661Z,15.97
2019-01-08T05:13:48.462Z,14.73
2019-01-08T05:16:19.491Z,13.87
2019-01-08T05:18:50.584Z,11.77
2019-01-08T05:21:21.387Z,19.00
2019-01-08T05:23:52.260Z,11.23
2019-01-08T05:26:23.380Z,10.30
2019-01-08T05:28:54.173Z,8.93
2019-01-08T05:31:24.939Z,8.87
2019-01-08T05:33:55.815Z,9.00
2019-01-08T05:36:26.656Z,8.47
2019-01-08T05:38:57.453Z,10.20
2019-01-08T05:41:28.220Z,9.63
2019-01-08T05:43:59.240Z,8.40
2019-01-08T05:46:30.240Z,8.70
2019-01-08T05:49:01.381Z,9.17
2019-01-08T05:51:32.156Z,7.80
2019-01-08T05:54:03.197Z,8.87
2019-01-08T05:56:33.966Z,9.53
2019-01-08T05:59:05.252Z,11.10
2019-01-08T06:01:36.029Z,11.67
2019-01-08T06:04:07.103Z,15.13
2019-01-08T06:06:38.188Z,11.03
2019-01-08T06:09:08.995Z,12.07
2019-01-08T06:11:39.775Z,14.43
2019-01-08T06:14:10.723Z,12.87
2019-01-08T06:16:41.883Z,11.93
2019-01-08T06:19:12.963Z,13.17
2019-01-08T06:21:43.821Z,12.50
2019-01-08T06:24:14.932Z,14.03
2019-01-08T06:26:45.720Z,11.97
2019-01-08T06:29:16.755Z,12.10
2019-01-08T06:31:48.174Z,15.73
2019-01-08T06:34:19.203Z,12.13
2019-01-08T06:36:50.289Z,12.77
2019-01-08T06:39:21.152Z,13.00
2019-01-08T06:41:52.164Z,12.57
2019-01-08T06:44:23.332Z,15.83
2019-01-08T06:46:54.351Z,13.20
2019-01-08T06:49:25.154Z,13.10
2019-01-08T06:51:56.418Z,13.27
2019-01-08T06:54:27.466Z,20.47
2019-01-08T06:56:58.383Z,15.57
2019-01-08T06:59:29.407Z,14.67
2019-01-08T07:02:00.270Z,14.83
2019-01-08T07:04:31.183Z,20.50
2019-01-08T07:07:02.037Z,16.70
2019-01-08T07:09:33.386Z,18.37
2019-01-08T07:12:04.176Z,17.37
2019-01-08T07:14:35.127Z,18.13
2019-01-08T07:17:06.432Z,17.80
2019-01-08T07:19:37.470Z,17.87
2019-01-08T07:22:08.651Z,19.63
2019-01-08T07:24:39.761Z,18.33
2019-01-08T07:27:16.301Z,21.87
2019-01-08T07:29:43.294Z,18.83
2019-01-08T07:32:14.387Z,18.10
2019-01-08T07:34:45.259Z,20.97
2019-01-08T07:37:16.267Z,18.30
2019-01-08T07:39:47.078Z,16.80
2019-01-08T07:42:18.230Z,17.73
2019-01-08T07:44:49.022Z,17.37
2019-01-08T07:47:19.805Z,18.23
2019-01-08T07:49:50.903Z,16.53
2019-01-08T07:52:22.031Z,17.00
2019-01-08T07:54:52.974Z,16.70
2019-01-08T07:57:24.245Z,18.20
2019-01-08T07:59:55.105Z,19.60
2019-01-08T08:02:26.194Z,16.97
2019-01-08T08:04:57.300Z,19.00
2019-01-08T08:07:28.439Z,17.50
2019-01-08T08:09:59.261Z,17.33
2019-01-08T08:12:30.302Z,15.87
2019-01-08T08:15:01.176Z,19.73
2019-01-08T08:17:32.579Z,17.77
2019-01-08T08:20:03.703Z,19.63
2019-01-08T08:22:34.478Z,18.83
2019-01-08T08:25:06.207Z,16.90
2019-01-08T08:27:37.258Z,16.30
2019-01-08T08:30:09.246Z,17.80
2019-01-08T08:32:40.376Z,15.60
2019-01-08T08:35:11.651Z,18.47
2019-01-08T08:37:42.753Z,15.80
2019-01-08T08:40:13.626Z,15.37
2019-01-08T08:42:44.996Z,15.33
2019-01-08T08:45:15.790Z,15.57
2019-01-08T08:47:46.575Z,18.60
2019-01-08T08:50:17.938Z,19.17
2019-01-08T08:52:49.038Z,16.90
2019-01-08T08:55:20.130Z,17.57
2019-01-08T08:57:51.155Z,17.17
2019-01-08T09:00:22.363Z,13.57
2019-01-08T09:02:53.644Z,16.70
2019-01-08T09:05:24.467Z,18.53
2019-01-08T09:07:55.323Z,13.67
2019-01-08T09:10:26.112Z,18.33
2019-01-08T09:12:57.618Z,16.23
2019-01-08T09:15:28.417Z,11.63
2019-01-08T09:17:59.483Z,13.77
2019-01-08T09:20:30.552Z,15.73
2019-01-08T09:23:01.617Z,13.67
2019-01-08T09:25:32.412Z,14.50
2019-01-08T09:28:03.189Z,14.97
2019-01-08T09:30:34.363Z,14.37
2019-01-08T09:33:05.532Z,15.10
2019-01-08T09:35:36.382Z,18.70
2019-01-08T09:38:07.562Z,13.33
2019-01-08T09:40:38.404Z,12.33
2019-01-08T09:43:09.786Z,17.00
2019-01-08T09:45:40.565Z,20.27
2019-01-08T09:48:11.347Z,21.43
2019-01-08T09:50:42.406Z,11.70
2019-01-08T09:53:13.401Z,14.33
2019-01-08T09:55:44.249Z,18.27
2019-01-08T09:58:15.090Z,26.60
2019-01-08T10:00:46.317Z,20.67
2019-01-08T10:03:17.630Z,15.33
2019-01-08T10:05:48.801Z,13.03
2019-01-08T10:08:19.566Z,15.30
2019-01-08T10:10:50.573Z,11.20
2019-01-08T10:13:21.706Z,14.63
2019-01-08T10:15:52.948Z,13.53
2019-01-08T10:18:24.437Z,16.77
2019-01-08T10:20:55.287Z,13.37
2019-01-08T10:23:26.056Z,14.43
2019-01-08T10:25:56.906Z,14.40
2019-01-08T10:28:27.738Z,12.80
2019-01-08T10:30:58.817Z,15.27
2019-01-08T10:33:29.570Z,15.97
2019-01-08T10:36:00.855Z,13.43
2019-01-08T10:38:31.915Z,15.53
2019-01-08T10:41:03.002Z,15.33
2019-01-08T10:43:33.840Z,16.37
2019-01-08T10:46:04.608Z,18.67
2019-01-08T10:48:35.436Z,14.30
2019-01-08T10:51:06.289Z,16.73
2019-01-08T10:53:37.324Z,22.03
2019-01-08T10:56:08.186Z,13.80
2019-01-08T10:58:39.040Z,14.03
2019-01-08T11:01:10.102Z,12.43
2019-01-08T11:03:40.940Z,11.67
2019-01-08T11:06:12.140Z,13.80
2019-01-08T11:08:44.127Z,16.90
2019-01-08T11:11:15.182Z,15.93
2019-01-08T11:13:46.570Z,13.97
2019-01-08T11:16:17.649Z,13.90
2019-01-08T11:18:48.646Z,12.47
2019-01-08T11:21:19.721Z,11.60
2019-01-08T11:23:50.562Z,10.90
2019-01-08T11:26:21.556Z,8.13
2019-01-08T11:28:52.391Z,10.60
2019-01-08T11:31:23.236Z,9.10
2019-01-08T11:33:54.066Z,10.47
2019-01-08T11:36:24.923Z,12.67
2019-01-08T11:38:55.920Z,16.00
2019-01-08T11:41:27.673Z,16.80
2019-01-08T11:43:58.508Z,13.33
2019-01-08T11:46:29.292Z,11.40
2019-01-08T11:49:00.528Z,12.33
2019-01-08T11:51:31.312Z,11.50
2019-01-08T11:54:02.370Z,22.73
2019-01-08T11:56:33.228Z,16.27
2019-01-08T11:59:04.233Z,8.77
2019-01-08T12:01:35.380Z,11.77
2019-01-08T12:04:06.151Z,11.37
2019-01-08T12:06:37.000Z,15.13
2019-01-08T12:09:07.791Z,13.73
2019-01-08T12:11:38.641Z,16.93
2019-01-08T12:14:09.650Z,13.03
2019-01-08T12:16:41.172Z,10.73
2019-01-08T12:19:11.998Z,10.63
2019-01-08T12:21:43.528Z,15.17
2019-01-08T12:24:14.848Z,13.73
2019-01-08T12:26:46.172Z,13.17
2019-01-08T12:29:17.159Z,19.60
2019-01-08T12:31:48.244Z,12.87
2019-01-08T12:34:19.536Z,12.80
2019-01-08T12:36:50.550Z,9.27
2019-01-08T12:39:21.308Z,10.47
2019-01-08T12:41:52.679Z,11.20
2019-01-08T12:44:23.678Z,9.00
2019-01-08T12:46:54.471Z,12.47
2019-01-08T12:49:25.535Z,8.17
2019-01-08T12:51:56.312Z,8.20
2019-01-08T12:54:27.070Z,5.97
2019-01-08T12:56:57.848Z,8.13
2019-01-08T12:59:28.600Z,7.23
2019-01-08T13:01:59.749Z,7.53
2019-01-08T13:04:31.717Z,10.83
2019-01-08T13:07:02.493Z,9.80
2019-01-08T13:09:33.242Z,9.23
2019-01-08T13:12:04.020Z,13.13
2019-01-08T13:14:35.416Z,13.47
2019-01-08T13:17:11.347Z,13.00
2019-01-08T13:19:39.031Z,13.50
2019-01-08T13:22:10.123Z,15.37
2019-01-08T13:24:41.118Z,9.03
2019-01-08T13:27:11.893Z,7.43
2019-01-08T13:29:42.721Z,11.50
2019-01-08T13:32:13.564Z,13.00
2019-01-08T13:34:44.340Z,9.53
2019-01-08T13:37:15.112Z,13.37
2019-01-08T13:39:45.878Z,13.47
2019-01-08T13:42:16.973Z,14.30
2019-01-08T13:44:47.816Z,14.53
2019-01-08T13:47:18.591Z,12.90
2019-01-08T13:49:49.607Z,12.33
2019-01-08T13:52:20.687Z,11.37
2019-01-08T13:54:51.729Z,9.50
2019-01-08T13:57:22.747Z,12.17
2019-01-08T13:59:53.735Z,11.93
2019-01-08T14:02:31.844Z,11.30
2019-01-08T14:04:57.558Z,14.77
2019-01-08T14:07:28.335Z,10.03
2019-01-08T14:09:59.654Z,9.50
2019-01-08T14:12:30.944Z,10.40
2019-01-08T14:15:01.970Z,9.73
2019-01-08T14:17:32.814Z,8.77
2019-01-08T14:20:03.680Z,11.03
2019-01-08T14:22:34.621Z,9.30
2019-01-08T14:25:06.048Z,10.67
2019-01-08T14:27:36.827Z,8.07
2019-01-08T14:30:08.926Z,7.47
2019-01-08T14:32:40.794Z,8.07
2019-01-08T14:35:11.804Z,10.83
2019-01-08T14:37:42.595Z,9.67
2019-01-08T14:40:13.422Z,9.50
2019-01-08T14:42:44.440Z,18.97
2019-01-08T14:45:15.204Z,9.77
2019-01-08T14:47:45.975Z,11.97
2019-01-08T14:50:16.968Z,22.50
2019-01-08T14:52:48.131Z,13.37
2019-01-08T14:55:19.159Z,10.83
2019-01-08T14:57:50.521Z,14.10
2019-01-08T15:00:21.853Z,12.40
2019-01-08T15:02:53.141Z,16.80
2019-01-08T15:05:24.234Z,14.50
2019-01-08T15:07:55.999Z,11.33
2019-01-08T15:10:28.030Z,11.83
2019-01-08T15:12:59.142Z,11.23
2019-01-08T15:15:30.216Z,9.10
2019-01-08T15:18:03.371Z,12.87
2019-01-08T15:20:33.924Z,8.27
2019-01-08T15:23:04.846Z,16.30
2019-01-08T15:25:36.187Z,12.03
2019-01-08T15:28:07.541Z,13.57
2019-01-08T15:30:38.380Z,15.23
2019-01-08T15:33:09.645Z,7.67
2019-01-08T15:35:40.409Z,9.63
2019-01-08T15:38:11.506Z,8.23
2019-01-08T15:40:42.761Z,10.40
2019-01-08T15:43:13.892Z,7.97
2019-01-08T15:45:45.164Z,16.30
2019-01-08T15:48:16.451Z,8.93
2019-01-08T15:50:48.020Z,10.93
2019-01-08T15:53:19.613Z,11.00
2019-01-08T15:55:50.397Z,9.20
2019-01-08T15:58:21.733Z,13.73
2019-01-08T16:00:52.758Z,12.03
2019-01-08T16:03:23.542Z,11.83
2019-01-08T16:05:54.787Z,11.90
2019-01-08T16:08:25.822Z,10.37
2019-01-08T16:10:57.812Z,14.13
2019-01-08T16:13:28.876Z,11.20
2019-01-08T16:16:00.220Z,10.13
2019-01-08T16:18:32.333Z,9.57
2019-01-08T16:21:03.112Z,8.63
2019-01-08T16:23:33.871Z,12.67
2019-01-08T16:26:04.885Z,9.47
2019-01-08T16:28:36.204Z,10.10
2019-01-08T16:31:07.296Z,11.00
2019-01-08T16:33:38.060Z,10.33
2019-01-08T16:36:09.216Z,11.33
2019-01-08T16:38:40.207Z,12.20
2019-01-08T16:41:11.206Z,7.93
2019-01-08T16:43:42.196Z,13.23
2019-01-08T16:46:13.058Z,19.87
2019-01-08T16:48:44.056Z,22.83
2019-01-08T16:51:14.879Z,7.70
2019-01-08T16:53:45.639Z,5.87
2019-01-08T16:56:16.428Z,9.33
2019-01-08T16:58:48.453Z,8.10
2019-01-08T17:01:19.453Z,7.27
2019-01-08T17:03:50.206Z,9.57
2019-01-08T17:06:21.266Z,7.27
2019-01-08T17:08:52.579Z,10.17
2019-01-08T17:11:23.602Z,8.67
2019-01-08T17:13:54.346Z,9.97
2019-01-08T17:16:25.257Z,7.00
2019-01-08T17:18:56.335Z,11.17
2019-01-08T17:21:27.192Z,10.10
2019-01-08T17:23:58.628Z,11.03
2019-01-08T17:26:30.904Z,12.70
2019-01-08T17:29:02.636Z,17.83
2019-01-08T17:31:33.493Z,13.60
2019-01-08T17:34:04.488Z,12.53
2019-01-08T17:36:35.351Z,12.80
2019-01-08T17:39:07.623Z,13.03
2019-01-08T17:41:38.805Z,15.17
2019-01-08T17:44:10.373Z,126.60
2019-01-08T17:46:41.625Z,15.70
2019-01-08T17:49:12.688Z,12.47
2019-01-08T17:51:43.715Z,12.03
2019-01-08T17:54:14.501Z,12.03
2019-01-08T17:56:45.559Z,11.13
2019-01-08T17:59:18.724Z,14.00
2019-01-08T18:02:00.840Z,12.03
2019-01-08T18:04:32.884Z,10.73
2019-01-08T18:07:05.071Z,11.30
2019-01-08T18:09:36.079Z,12.67
2019-01-08T18:12:07.424Z,10.43
2019-01-08T18:14:38.540Z,13.63
2019-01-08T18:17:09.455Z,17.37
2019-01-08T18:19:40.296Z,13.63
2019-01-08T18:22:11.139Z,12.47
2019-01-08T18:24:42.157Z,16.27
2019-01-08T18:27:13.501Z,12.63
2019-01-08T18:29:44.264Z,19.77
2019-01-08T18:32:15.116Z,16.23
2019-01-08T18:34:45.875Z,17.90
2019-01-08T18:37:16.660Z,18.93
2019-01-08T18:39:47.923Z,19.17
2019-01-08T18:42:19.432Z,21.97
2019-01-08T18:44:50.600Z,16.67
2019-01-08T18:47:21.383Z,13.67
2019-01-08T18:49:52.881Z,13.80
2019-01-08T18:52:23.884Z,12.63
2019-01-08T18:54:54.882Z,17.13
2019-01-08T18:57:25.735Z,15.90
2019-01-08T18:59:56.967Z,16.53
2019-01-08T19:02:27.995Z,20.00
2019-01-08T19:04:58.767Z,23.20
2019-01-08T19:07:29.570Z,15.97
2019-01-08T19:10:06.180Z,11.93
2019-01-08T19:12:37.726Z,13.23
2019-01-08T19:15:09.467Z,18.70
2019-01-08T19:17:40.396Z,10.40
2019-01-08T19:20:11.381Z,14.30
2019-01-08T19:22:42.528Z,16.73
2019-01-08T19:25:13.606Z,19.07
2019-01-08T19:27:44.762Z,13.80
2019-01-08T19:30:15.557Z,13.63
2019-01-08T19:32:46.324Z,10.87
2019-01-08T19:35:17.317Z,11.23
2019-01-08T19:37:48.330Z,12.00
2019-01-08T19:40:19.440Z,7.90
2019-01-08T19:42:50.467Z,14.10
2019-01-08T19:45:21.371Z,16.23
2019-01-08T19:47:52.230Z,12.20
2019-01-08T19:50:22.993Z,10.63
2019-01-08T19:52:53.887Z,12.33
2019-01-08T19:55:24.653Z,10.57
2019-01-08T19:57:55.660Z,14.53
2019-01-08T20:00:26.968Z,16.07
2019-01-08T20:02:57.834Z,10.63
2019-01-08T20:05:29.071Z,16.23
2019-01-08T20:08:00.228Z,10.53
2019-01-08T20:10:31.006Z,12.77
2019-01-08T20:13:02.040Z,14.93
2019-01-08T20:15:33.162Z,11.43
2019-01-08T20:18:04.169Z,15.37
2019-01-08T20:20:34.928Z,11.87
2019-01-08T20:23:06.192Z,14.73
2019-01-08T20:25:36.973Z,13.27
2019-01-08T20:28:07.826Z,10.73
2019-01-08T20:30:38.837Z,14.17
2019-01-08T20:33:09.919Z,14.13
2019-01-08T20:35:40.683Z,15.73
2019-01-08T20:38:11.536Z,13.80
2019-01-08T20:40:42.697Z,15.53
2019-01-08T20:43:13.484Z,11.10
2019-01-08T20:45:44.247Z,11.37
2019-01-08T20:48:16.332Z,12.03
2019-01-08T20:50:47.105Z,16.13
2019-01-08T20:53:17.952Z,13.30
2019-01-08T20:55:48.942Z,15.73
2019-01-08T20:58:27.516Z,13.53
2019-01-08T21:00:52.877Z,15.17
2019-01-08T21:03:23.977Z,15.77
2019-01-08T21:05:55.221Z,12.13
2019-01-08T21:08:26.302Z,15.97
2019-01-08T21:10:57.327Z,12.23
2019-01-08T21:13:28.474Z,20.17
2019-01-08T21:15:59.733Z,17.90
2019-01-08T21:18:30.554Z,14.63
2019-01-08T21:21:01.798Z,16.67
2019-01-08T21:23:32.810Z,14.10
2019-01-08T21:26:03.802Z,14.27
2019-01-08T21:28:35.027Z,17.93
2019-01-08T21:31:06.091Z,12.63
2019-01-08T21:33:37.147Z,15.63
2019-01-08T21:36:08.484Z,12.93
2019-01-08T21:38:39.504Z,13.97
2019-01-08T21:41:10.559Z,11.83
2019-01-08T21:43:41.654Z,11.17
2019-01-08T21:46:12.412Z,12.20
2019-01-08T21:48:43.193Z,18.60
2019-01-08T21:51:13.964Z,13.90
2019-01-08T21:53:44.779Z,14.27
2019-01-08T21:56:15.783Z,12.53
2019-01-08T21:58:46.635Z,14.37
2019-01-08T22:01:17.404Z,10.23
2019-01-08T22:03:48.250Z,8.07
2019-01-08T22:06:19.307Z,9.80
2019-01-08T22:08:50.339Z,14.00
2019-01-08T22:11:21.585Z,13.43
2019-01-08T22:13:52.367Z,8.47
2019-01-08T22:16:23.372Z,14.87
2019-01-08T22:18:54.630Z,11.47
2019-01-08T22:21:25.896Z,13.00
2019-01-08T22:23:56.672Z,13.47
2019-01-08T22:26:27.933Z,18.57
2019-01-08T22:28:59.032Z,13.13
2019-01-08T22:31:30.023Z,16.73
2019-01-08T22:34:01.040Z,17.07
2019-01-08T22:36:32.801Z,15.50
2019-01-08T22:39:04.661Z,15.40
2019-01-08T22:41:37.084Z,16.00
2019-01-08T22:44:08.103Z,10.67
2019-01-08T22:46:38.869Z,17.57
2019-01-08T22:49:09.958Z,10.10
2019-01-08T22:51:41.287Z,13.30
2019-01-08T22:54:12.522Z,11.43
2019-01-08T22:56:43.720Z,13.57
2019-01-08T22:59:14.900Z,11.00
2019-01-08T23:01:48.206Z,9.30
2019-01-08T23:04:19.121Z,19.40
2019-01-08T23:06:50.438Z,18.33
2019-01-08T23:09:22.466Z,15.40
2019-01-08T23:11:53.556Z,21.03
2019-01-08T23:14:24.636Z,23.20
2019-01-08T23:16:55.782Z,17.03
2019-01-08T23:19:26.916Z,16.10
2019-01-08T23:21:57.980Z,15.30
2019-01-08T23:24:28.830Z,18.53
2019-01-08T23:27:00.092Z,15.83
2019-01-08T23:29:31.163Z,19.50
2019-01-08T23:32:01.996Z,15.07
2019-01-08T23:34:33.344Z,16.10
2019-01-08T23:37:04.412Z,18.27
2019-01-08T23:39:35.247Z,17.47
2019-01-08T23:42:06.318Z,14.10
2019-01-08T23:44:37.476Z,22.87
2019-01-08T23:47:09.522Z,19.87
2019-01-08T23:49:40.373Z,17.97
2019-01-08T23:52:22.600Z,20.43
2019-01-08T23:54:54.377Z,18.13
2019-01-08T23:57:25.517Z,16.30
2019-01-08T23:59:56.294Z,16.37
